createdAt,value
2023-10-16T00:01:27.663Z,10.70
2023-10-16T00:06:30.426Z,11.50
2023-10-16T00:11:32.561Z,10.40
2023-10-16T00:16:34.737Z,9.80
2023-10-16T00:21:45.230Z,9.70
2023-10-16T00:26:50.831Z,10.80
2023-10-16T00:31:54.061Z,11.10
2023-10-16T00:36:56.514Z,12.20
2023-10-16T00:42:00.360Z,12.90
2023-10-16T00:47:06.979Z,12.40
2023-10-16T00:52:10.577Z,12.90
2023-10-16T00:57:12.905Z,11.60
2023-10-16T01:02:17.046Z,10.80
2023-10-16T01:07:20.743Z,11.50
2023-10-16T01:12:23.544Z,12.50
2023-10-16T01:17:32.322Z,12.60
2023-10-16T01:22:36.399Z,12.90
2023-10-16T01:27:41.704Z,11.70
2023-10-16T01:32:43.927Z,12.30
2023-10-16T01:37:48.072Z,12.30
2023-10-16T01:42:55.912Z,11.40
2023-10-16T01:47:58.463Z,11.00
2023-10-16T01:53:00.991Z,11.40
2023-10-16T01:58:04.673Z,10.70
2023-10-16T02:03:10.389Z,11.10
2023-10-16T02:08:16.086Z,11.70
2023-10-16T02:13:18.365Z,11.30
2023-10-16T02:18:24.442Z,11.60
2023-10-16T02:23:32.074Z,11.90
2023-10-16T02:28:34.988Z,11.60
2023-10-16T02:33:38.235Z,10.70
2023-10-16T02:38:43.254Z,10.40
2023-10-16T02:43:48.289Z,10.40
2023-10-16T02:48:54.574Z,10.20
2023-10-16T02:53:56.859Z,10.70
2023-10-16T02:58:58.971Z,10.20
2023-10-16T03:04:01.357Z,10.80
2023-10-16T03:09:38.721Z,10.30
2023-10-16T03:14:47.210Z,10.60
2023-10-16T03:19:50.015Z,11.20
2023-10-16T03:25:00.917Z,10.70
2023-10-16T03:30:03.228Z,10.70
2023-10-16T03:35:09.676Z,10.30
2023-10-16T03:40:13.622Z,11.00
2023-10-16T03:45:16.324Z,11.00
2023-10-16T03:50:24.756Z,10.90
2023-10-16T03:55:27.244Z,10.90
2023-10-16T04:00:45.246Z,10.60
2023-10-16T04:05:48.667Z,10.40
2023-10-16T04:10:55.010Z,10.80
2023-10-16T04:16:06.486Z,9.90
2023-10-16T04:21:15.240Z,9.30
2023-10-16T04:26:29.754Z,9.20
2023-10-16T04:31:56.700Z,9.60
2023-10-16T04:37:26.484Z,9.30
2023-10-16T04:42:57.953Z,8.70
2023-10-16T04:48:06.229Z,9.70
2023-10-16T04:53:12.794Z,8.50
2023-10-16T04:58:20.086Z,8.20
2023-10-16T05:03:25.990Z,9.20
2023-10-16T05:08:40.645Z,9.60
2023-10-16T05:14:00.948Z,10.10
2023-10-16T05:19:22.463Z,10.00
2023-10-16T05:24:43.407Z,10.20
2023-10-16T05:30:04.285Z,9.10
2023-10-16T05:35:26.006Z,9.40
2023-10-16T05:40:46.560Z,10.00
2023-10-16T05:46:07.493Z,11.00
2023-10-16T05:51:27.949Z,10.40
2023-10-16T05:56:48.765Z,10.10
2023-10-16T06:02:09.595Z,9.70
2023-10-16T06:07:30.472Z,8.70
2023-10-16T06:12:51.349Z,9.20
2023-10-16T06:17:53.700Z,10.10
2023-10-16T06:22:55.812Z,10.60
2023-10-16T06:27:58.200Z,9.90
2023-10-16T06:33:03.492Z,10.00
2023-10-16T06:38:12.629Z,10.30
2023-10-16T06:43:15.812Z,11.30
2023-10-16T06:48:17.994Z,11.30
2023-10-16T06:53:20.434Z,10.70
2023-10-16T06:58:23.261Z,10.30
2023-10-16T07:03:26.420Z,10.00
2023-10-16T07:08:28.672Z,10.60
2023-10-16T07:13:33.954Z,10.90
2023-10-16T07:18:37.229Z,11.30
2023-10-16T07:23:40.745Z,11.30
2023-10-16T07:28:43.305Z,10.80
2023-10-16T07:33:55.099Z,11.10
2023-10-16T07:38:58.273Z,10.60
2023-10-16T07:44:08.554Z,10.60
2023-10-16T07:49:11.573Z,10.50
2023-10-16T07:54:14.256Z,10.20
2023-10-16T07:59:22.480Z,10.70
2023-10-16T08:04:25.314Z,11.10
2023-10-16T08:09:27.951Z,10.60
2023-10-16T08:14:33.785Z,10.60
2023-10-16T08:19:41.017Z,10.10
2023-10-16T08:24:59.367Z,10.70
2023-10-16T08:30:20.174Z,11.60
2023-10-16T08:35:22.398Z,11.90
2023-10-16T08:40:34.938Z,12.40
2023-10-16T08:45:49.541Z,12.70
2023-10-16T08:50:59.432Z,12.80
2023-10-16T08:56:10.560Z,13.10
2023-10-16T09:01:18.782Z,12.80
2023-10-16T09:06:26.169Z,12.50
2023-10-16T09:11:28.673Z,12.60
2023-10-16T09:16:33.245Z,12.20
2023-10-16T09:21:39.864Z,11.60
2023-10-16T09:26:46.640Z,12.40
2023-10-16T09:31:52.527Z,12.90
2023-10-16T09:37:13.860Z,13.30
2023-10-16T09:42:16.771Z,13.80
2023-10-16T09:47:28.958Z,13.80
2023-10-16T09:52:34.790Z,14.00
2023-10-16T09:57:48.152Z,14.10
2023-10-16T10:03:04.415Z,14.20
2023-10-16T10:08:25.558Z,14.70
2023-10-16T10:13:35.488Z,14.30
2023-10-16T10:18:43.779Z,14.60
2023-10-16T10:23:50.616Z,15.00
2023-10-16T10:29:13.673Z,14.60
2023-10-16T10:34:30.576Z,14.20
2023-10-16T10:39:42.180Z,14.20
2023-10-16T10:44:56.307Z,14.00
2023-10-16T10:50:01.360Z,14.50
2023-10-16T10:55:15.810Z,14.20
2023-10-16T11:00:28.247Z,15.00
2023-10-16T11:05:35.036Z,17.70
2023-10-16T11:10:47.843Z,19.10
2023-10-16T11:16:00.422Z,20.40
2023-10-16T11:21:08.411Z,22.40
2023-10-16T11:26:15.091Z,22.60
2023-10-16T11:31:20.027Z,21.00
2023-10-16T11:36:24.633Z,19.10
2023-10-16T11:41:28.345Z,18.30
2023-10-16T11:46:33.982Z,18.20
2023-10-16T11:51:36.932Z,17.80
2023-10-16T11:56:39.382Z,16.80
2023-10-16T12:06:50.029Z,16.90
2023-10-16T12:11:54.131Z,17.00
2023-10-16T12:16:59.013Z,15.50
2023-10-16T12:22:01.650Z,17.20
2023-10-16T12:27:04.139Z,17.00
2023-10-16T12:32:06.296Z,17.10
2023-10-16T12:37:08.924Z,16.70
2023-10-16T12:42:12.031Z,15.70
2023-10-16T12:52:22.520Z,16.30
2023-10-16T12:57:25.761Z,16.60
2023-10-16T13:02:28.184Z,16.70
2023-10-16T13:07:42.306Z,17.20
2023-10-16T13:12:46.294Z,17.00
2023-10-16T13:17:50.346Z,17.20
2023-10-16T13:22:54.464Z,17.10
2023-10-16T13:27:57.431Z,17.30
2023-10-16T13:33:08.437Z,19.70
2023-10-16T13:38:11.154Z,21.40
2023-10-16T13:43:13.493Z,22.60
2023-10-16T13:48:18.349Z,22.90
2023-10-16T13:53:21.520Z,20.70
2023-10-16T13:58:23.970Z,19.50
2023-10-16T14:03:26.433Z,18.80
2023-10-16T14:08:32.247Z,18.30
2023-10-16T14:13:34.636Z,17.80
2023-10-16T14:18:37.088Z,17.20
2023-10-16T14:23:40.333Z,16.90
2023-10-16T14:28:47.057Z,16.80
2023-10-16T14:39:24.760Z,16.70
2023-10-16T14:44:27.280Z,16.70
2023-10-16T14:49:31.852Z,16.60
2023-10-16T14:54:36.445Z,16.60
2023-10-16T14:59:38.951Z,16.70
2023-10-16T15:04:46.253Z,16.70
2023-10-16T15:09:50.051Z,16.50
2023-10-16T15:14:54.648Z,16.50
2023-10-16T15:19:56.858Z,16.50
2023-10-16T15:24:59.144Z,16.40
2023-10-16T15:30:01.382Z,16.30
2023-10-16T15:35:04.967Z,16.30
2023-10-16T15:40:09.257Z,16.30
2023-10-16T15:45:14.055Z,16.00
2023-10-16T15:50:16.239Z,16.30
2023-10-16T15:55:18.677Z,16.50
2023-10-16T16:00:27.599Z,16.50
2023-10-16T16:05:35.497Z,16.40
2023-10-16T16:10:41.620Z,16.30
2023-10-16T16:15:46.785Z,16.30
2023-10-16T16:20:49.059Z,16.30
2023-10-16T16:25:51.403Z,16.10
2023-10-16T16:30:55.917Z,15.80
2023-10-16T16:35:58.398Z,15.60
2023-10-16T16:41:00.616Z,15.80
2023-10-16T16:46:04.699Z,15.80
2023-10-16T16:51:06.927Z,15.70
2023-10-16T16:56:14.330Z,15.50
2023-10-16T17:01:16.588Z,15.60
2023-10-16T17:06:18.959Z,15.50
2023-10-16T17:11:22.255Z,15.30
2023-10-16T17:16:24.592Z,15.10
2023-10-16T17:21:26.957Z,15.20
2023-10-16T17:26:38.444Z,15.20
2023-10-16T17:31:42.167Z,14.90
2023-10-16T17:36:44.556Z,14.80
2023-10-16T17:41:48.545Z,14.80
2023-10-16T17:46:51.648Z,14.60
2023-10-16T17:51:56.032Z,14.60
2023-10-16T17:57:02.278Z,14.10
2023-10-16T18:02:11.494Z,13.90
2023-10-16T18:07:13.769Z,13.60
2023-10-16T18:12:21.452Z,13.80
2023-10-16T18:17:23.823Z,14.00
2023-10-16T18:22:26.661Z,14.00
2023-10-16T18:27:29.210Z,14.20
2023-10-16T18:32:32.087Z,14.30
2023-10-16T18:37:35.309Z,14.20
2023-10-16T18:42:40.926Z,14.10
2023-10-16T18:47:43.139Z,13.50
2023-10-16T18:52:48.936Z,13.60
2023-10-16T18:57:51.257Z,13.80
2023-10-16T19:02:59.947Z,13.90
2023-10-16T19:08:02.337Z,13.90
2023-10-16T19:13:05.475Z,13.90
2023-10-16T19:18:12.966Z,13.80
2023-10-16T19:23:15.401Z,13.80
2023-10-16T19:28:17.820Z,13.70
2023-10-16T19:33:22.464Z,13.70
2023-10-16T19:38:25.674Z,13.60
2023-10-16T19:43:27.932Z,13.60
2023-10-16T19:48:30.680Z,13.40
2023-10-16T19:53:37.036Z,13.10
2023-10-16T19:58:42.629Z,12.00
2023-10-16T20:03:46.788Z,12.30
2023-10-16T20:08:49.925Z,12.50
2023-10-16T20:13:52.172Z,12.30
2023-10-16T20:18:56.946Z,11.90
2023-10-16T20:24:05.244Z,11.50
2023-10-16T20:29:07.465Z,11.20
2023-10-16T20:34:10.494Z,11.10
2023-10-16T20:39:13.806Z,11.90
2023-10-16T20:44:16.084Z,11.60
2023-10-16T20:49:18.254Z,11.60
2023-10-16T20:54:23.044Z,11.70
2023-10-16T20:59:25.380Z,11.70
2023-10-16T21:04:28.223Z,11.70
2023-10-16T21:09:30.734Z,11.40
2023-10-16T21:14:36.641Z,11.50
2023-10-16T21:19:40.901Z,11.50
2023-10-16T21:24:44.408Z,11.50
2023-10-16T21:29:46.604Z,11.70
2023-10-16T21:34:52.554Z,12.30
2023-10-16T21:39:54.726Z,12.40
2023-10-16T21:44:57.017Z,12.00
2023-10-16T21:49:59.249Z,11.60
2023-10-16T21:55:02.113Z,11.40
2023-10-16T22:00:14.123Z,10.70
2023-10-16T22:05:16.694Z,10.20
2023-10-16T22:10:21.367Z,9.90
2023-10-16T22:15:24.526Z,10.30
2023-10-16T22:20:26.793Z,9.70
2023-10-16T22:25:30.755Z,9.60
2023-10-16T22:30:34.381Z,10.50
2023-10-16T22:35:43.389Z,10.30
2023-10-16T22:40:46.266Z,9.80
2023-10-16T22:45:48.562Z,9.80
2023-10-16T22:50:50.919Z,10.80
2023-10-16T22:55:53.127Z,11.20
2023-10-16T23:01:02.038Z,10.90
2023-10-16T23:06:06.816Z,10.60
2023-10-16T23:11:29.141Z,10.50
2023-10-16T23:16:31.397Z,9.90
2023-10-16T23:21:33.560Z,9.40
2023-10-16T23:26:36.057Z,9.30
2023-10-16T23:31:38.665Z,9.10
2023-10-16T23:36:40.880Z,9.10
2023-10-16T23:41:47.576Z,9.00
2023-10-16T23:46:57.279Z,9.40
2023-10-16T23:52:02.418Z,9.10
2023-10-16T23:57:07.504Z,9.60
